sensor_id;sensor_type;location;lat;lon;timestamp;pressure;altitude;pressure_sealevel;temperature;humidity
43770;BME280;6597;52.218;9.882;2023-06-10T00:00:39;100887.16;;;15.58;76.85
43770;BME280;6597;52.218;9.882;2023-06-10T00:03:07;100891.56;;;15.57;76.75
43770;BME280;6597;52.218;9.882;2023-06-10T00:05:34;100900.53;;;15.55;76.61
43770;BME280;6597;52.218;9.882;2023-06-10T00:08:02;100889.50;;;15.47;76.64
43770;BME280;6597;52.218;9.882;2023-06-10T00:10:32;100893.94;;;15.46;75.53
43770;BME280;6597;52.218;9.882;2023-06-10T00:13:00;100895.88;;;15.43;75.16
43770;BME280;6597;52.218;9.882;2023-06-10T00:15:27;100895.47;;;15.50;74.38
43770;BME280;6597;52.218;9.882;2023-06-10T00:17:54;100888.91;;;15.57;73.95
43770;BME280;6597;52.218;9.882;2023-06-10T00:20:21;100892.44;;;15.58;73.97
43770;BME280;6597;52.218;9.882;2023-06-10T00:22:48;100887.03;;;15.44;74.57
43770;BME280;6597;52.218;9.882;2023-06-10T00:25:16;100890.75;;;15.40;74.69
43770;BME280;6597;52.218;9.882;2023-06-10T00:27:43;100893.13;;;15.29;74.75
43770;BME280;6597;52.218;9.882;2023-06-10T00:30:11;100882.94;;;15.21;74.96
43770;BME280;6597;52.218;9.882;2023-06-10T00:32:37;100889.72;;;15.09;75.10
43770;BME280;6597;52.218;9.882;2023-06-10T00:35:05;100883.28;;;14.98;75.43
43770;BME280;6597;52.218;9.882;2023-06-10T00:37:32;100888.84;;;14.91;75.68
43770;BME280;6597;52.218;9.882;2023-06-10T00:40:00;100888.00;;;14.91;75.81
43770;BME280;6597;52.218;9.882;2023-06-10T00:42:28;100897.81;;;14.89;75.55
43770;BME280;6597;52.218;9.882;2023-06-10T00:44:55;100906.97;;;14.82;75.64
43770;BME280;6597;52.218;9.882;2023-06-10T00:47:22;100903.72;;;14.77;75.41
43770;BME280;6597;52.218;9.882;2023-06-10T00:49:50;100900.59;;;14.69;75.94
43770;BME280;6597;52.218;9.882;2023-06-10T00:52:18;100900.69;;;14.67;75.87
43770;BME280;6597;52.218;9.882;2023-06-10T00:54:45;100899.91;;;14.65;75.42
43770;BME280;6597;52.218;9.882;2023-06-10T00:57:12;100897.63;;;14.57;75.95
43770;BME280;6597;52.218;9.882;2023-06-10T00:59:41;100894.91;;;14.59;76.08
43770;BME280;6597;52.218;9.882;2023-06-10T01:02:09;100896.75;;;14.57;76.74
43770;BME280;6597;52.218;9.882;2023-06-10T01:04:35;100901.41;;;14.52;76.84
43770;BME280;6597;52.218;9.882;2023-06-10T01:07:09;100901.66;;;14.47;76.94
43770;BME280;6597;52.218;9.882;2023-06-10T01:09:45;100893.97;;;14.43;77.17
43770;BME280;6597;52.218;9.882;2023-06-10T01:12:19;100903.72;;;14.41;77.03
43770;BME280;6597;52.218;9.882;2023-06-10T01:14:48;100896.88;;;14.37;77.12
43770;BME280;6597;52.218;9.882;2023-06-10T01:17:16;100903.94;;;14.36;77.72
43770;BME280;6597;52.218;9.882;2023-06-10T01:19:43;100906.81;;;14.31;77.95
43770;BME280;6597;52.218;9.882;2023-06-10T01:22:11;100903.50;;;14.26;79.06
43770;BME280;6597;52.218;9.882;2023-06-10T01:24:41;100906.50;;;14.19;80.54
43770;BME280;6597;52.218;9.882;2023-06-10T01:27:12;100906.75;;;14.14;81.18
43770;BME280;6597;52.218;9.882;2023-06-10T01:29:44;100899.91;;;14.10;82.45
43770;BME280;6597;52.218;9.882;2023-06-10T01:32:18;100903.75;;;14.03;83.20
43770;BME280;6597;52.218;9.882;2023-06-10T01:34:47;100898.63;;;14.00;83.56
43770;BME280;6597;52.218;9.882;2023-06-10T01:37:19;100906.16;;;13.89;84.36
43770;BME280;6597;52.218;9.882;2023-06-10T01:39:49;100909.31;;;13.78;84.76
43770;BME280;6597;52.218;9.882;2023-06-10T01:42:17;100909.59;;;13.72;85.77
43770;BME280;6597;52.218;9.882;2023-06-10T01:44:44;100912.44;;;13.67;86.25
43770;BME280;6597;52.218;9.882;2023-06-10T01:47:10;100922.59;;;13.56;87.48
43770;BME280;6597;52.218;9.882;2023-06-10T01:49:37;100921.88;;;13.53;88.27
43770;BME280;6597;52.218;9.882;2023-06-10T01:52:04;100928.22;;;13.49;88.10
43770;BME280;6597;52.218;9.882;2023-06-10T01:54:33;100922.09;;;13.48;88.48
43770;BME280;6597;52.218;9.882;2023-06-10T01:57:01;100926.44;;;13.49;88.36
43770;BME280;6597;52.218;9.882;2023-06-10T01:59:27;100933.56;;;13.47;89.70
43770;BME280;6597;52.218;9.882;2023-06-10T02:01:54;100923.88;;;13.48;89.08
43770;BME280;6597;52.218;9.882;2023-06-10T02:04:20;100927.50;;;13.45;88.89
43770;BME280;6597;52.218;9.882;2023-06-10T02:06:47;100929.44;;;13.42;89.27
43770;BME280;6597;52.218;9.882;2023-06-10T02:09:13;100926.94;;;13.38;89.83
43770;BME280;6597;52.218;9.882;2023-06-10T02:11:41;100932.34;;;13.35;90.30
43770;BME280;6597;52.218;9.882;2023-06-10T02:14:08;100928.03;;;13.33;90.59
43770;BME280;6597;52.218;9.882;2023-06-10T02:16:35;100931.59;;;13.32;90.80
43770;BME280;6597;52.218;9.882;2023-06-10T02:19:04;100928.94;;;13.32;90.40
43770;BME280;6597;52.218;9.882;2023-06-10T02:21:31;100928.22;;;13.28;90.59
43770;BME280;6597;52.218;9.882;2023-06-10T02:23:59;100936.47;;;13.21;90.41
43770;BME280;6597;52.218;9.882;2023-06-10T02:26:26;100931.44;;;13.15;91.17
43770;BME280;6597;52.218;9.882;2023-06-10T02:28:54;100942.38;;;13.05;91.43
43770;BME280;6597;52.218;9.882;2023-06-10T02:31:21;100958.41;;;13.01;92.38
43770;BME280;6597;52.218;9.882;2023-06-10T02:33:49;100949.66;;;12.99;93.11
43770;BME280;6597;52.218;9.882;2023-06-10T02:36:16;100956.63;;;13.01;93.35
43770;BME280;6597;52.218;9.882;2023-06-10T02:38:42;100960.28;;;12.97;93.90
43770;BME280;6597;52.218;9.882;2023-06-10T02:41:09;100957.91;;;12.91;94.34
43770;BME280;6597;52.218;9.882;2023-06-10T02:43:36;100962.44;;;12.88;94.61
43770;BME280;6597;52.218;9.882;2023-06-10T02:46:04;100960.84;;;12.84;95.28
43770;BME280;6597;52.218;9.882;2023-06-10T02:48:31;100959.22;;;12.81;95.90
43770;BME280;6597;52.218;9.882;2023-06-10T02:50:57;100953.16;;;12.79;95.95
43770;BME280;6597;52.218;9.882;2023-06-10T02:53:31;100961.84;;;12.81;96.02
43770;BME280;6597;52.218;9.882;2023-06-10T02:56:04;100963.69;;;12.79;96.49
43770;BME280;6597;52.218;9.882;2023-06-10T02:58:31;100961.13;;;12.77;95.86
43770;BME280;6597;52.218;9.882;2023-06-10T03:00:57;100961.06;;;12.79;96.54
43770;BME280;6597;52.218;9.882;2023-06-10T03:03:26;100955.06;;;12.75;96.96
43770;BME280;6597;52.218;9.882;2023-06-10T03:06:02;100950.84;;;12.71;96.78
43770;BME280;6597;52.218;9.882;2023-06-10T03:08:30;100960.00;;;12.61;97.42
43770;BME280;6597;52.218;9.882;2023-06-10T03:10:59;100953.16;;;12.57;98.58
43770;BME280;6597;52.218;9.882;2023-06-10T03:13:26;100961.97;;;12.56;98.39
43770;BME280;6597;52.218;9.882;2023-06-10T03:15:53;100961.97;;;12.56;98.56
43770;BME280;6597;52.218;9.882;2023-06-10T03:18:27;100970.00;;;12.53;99.20
43770;BME280;6597;52.218;9.882;2023-06-10T03:20:53;100963.06;;;12.51;99.68
43770;BME280;6597;52.218;9.882;2023-06-10T03:23:21;100962.34;;;12.47;100.00
43770;BME280;6597;52.218;9.882;2023-06-10T03:25:48;100967.66;;;12.45;100.00
43770;BME280;6597;52.218;9.882;2023-06-10T03:28:17;100972.00;;;12.46;100.00
43770;BME280;6597;52.218;9.882;2023-06-10T03:30:44;100968.41;;;12.49;100.00
43770;BME280;6597;52.218;9.882;2023-06-10T03:33:11;100966.56;;;12.51;100.00
43770;BME280;6597;52.218;9.882;2023-06-10T03:35:40;100969.94;;;12.55;100.00
43770;BME280;6597;52.218;9.882;2023-06-10T03:38:07;100970.72;;;12.57;100.00
43770;BME280;6597;52.218;9.882;2023-06-10T03:40:33;100983.94;;;12.55;100.00
43770;BME280;6597;52.218;9.882;2023-06-10T03:43:00;100986.84;;;12.49;100.00
43770;BME280;6597;52.218;9.882;2023-06-10T03:45:28;100983.34;;;12.49;100.00
43770;BME280;6597;52.218;9.882;2023-06-10T03:47:55;100987.81;;;12.46;100.00
43770;BME280;6597;52.218;9.882;2023-06-10T03:50:27;100994.13;;;12.42;100.00
43770;BME280;6597;52.218;9.882;2023-06-10T03:52:55;100990.69;;;12.40;100.00
43770;BME280;6597;52.218;9.882;2023-06-10T03:55:24;100994.97;;;12.43;100.00
43770;BME280;6597;52.218;9.882;2023-06-10T03:57:53;100999.25;;;12.45;100.00
43770;BME280;6597;52.218;9.882;2023-06-10T04:00:20;100992.97;;;12.50;100.00
43770;BME280;6597;52.218;9.882;2023-06-10T04:02:47;100995.72;;;12.46;100.00
43770;BME280;6597;52.218;9.882;2023-06-10T04:05:25;100996.63;;;12.45;100.00
43770;BME280;6597;52.218;9.882;2023-06-10T04:07:55;100996.75;;;12.42;100.00
43770;BME280;6597;52.218;9.882;2023-06-10T04:10:22;100995.59;;;12.50;100.00
43770;BME280;6597;52.218;9.882;2023-06-10T04:12:48;100993.56;;;12.56;100.00
43770;BME280;6597;52.218;9.882;2023-06-10T04:15:15;100999.50;;;12.61;100.00
43770;BME280;6597;52.218;9.882;2023-06-10T04:17:42;100996.63;;;12.67;100.00
43770;BME280;6597;52.218;9.882;2023-06-10T04:20:10;101001.81;;;12.70;100.00
43770;BME280;6597;52.218;9.882;2023-06-10T04:22:39;100997.38;;;12.71;100.00
43770;BME280;6597;52.218;9.882;2023-06-10T04:25:09;101004.97;;;12.78;100.00
43770;BME280;6597;52.218;9.882;2023-06-10T04:27:36;101003.19;;;12.79;100.00
43770;BME280;6597;52.218;9.882;2023-06-10T04:30:03;100998.84;;;12.78;100.00
43770;BME280;6597;52.218;9.882;2023-06-10T04:32:31;100995.09;;;12.84;100.00
43770;BME280;6597;52.218;9.882;2023-06-10T04:34:59;100991.47;;;12.86;100.00
43770;BME280;6597;52.218;9.882;2023-06-10T04:37:26;100994.84;;;12.90;100.00
43770;BME280;6597;52.218;9.882;2023-06-10T04:39:54;101002.44;;;12.97;100.00
43770;BME280;6597;52.218;9.882;2023-06-10T04:42:23;100993.38;;;13.04;100.00
43770;BME280;6597;52.218;9.882;2023-06-10T04:44:50;100998.38;;;13.11;100.00
43770;BME280;6597;52.218;9.882;2023-06-10T04:47:16;100995.56;;;13.15;100.00
43770;BME280;6597;52.218;9.882;2023-06-10T04:49:44;100991.78;;;13.22;100.00
43770;BME280;6597;52.218;9.882;2023-06-10T04:52:11;100987.88;;;13.31;100.00
43770;BME280;6597;52.218;9.882;2023-06-10T04:54:40;100995.56;;;13.37;100.00
43770;BME280;6597;52.218;9.882;2023-06-10T04:57:06;100988.38;;;13.41;100.00
43770;BME280;6597;52.218;9.882;2023-06-10T04:59:35;100989.22;;;13.41;100.00
43770;BME280;6597;52.218;9.882;2023-06-10T05:02:03;100984.53;;;13.48;100.00
43770;BME280;6597;52.218;9.882;2023-06-10T05:04:30;100991.38;;;13.52;100.00
43770;BME280;6597;52.218;9.882;2023-06-10T05:06:56;100983.13;;;13.59;100.00
43770;BME280;6597;52.218;9.882;2023-06-10T05:09:23;100981.16;;;13.64;100.00
43770;BME280;6597;52.218;9.882;2023-06-10T05:11:49;100979.25;;;13.68;100.00
43770;BME280;6597;52.218;9.882;2023-06-10T05:14:16;100977.41;;;13.70;100.00
43770;BME280;6597;52.218;9.882;2023-06-10T05:16:45;100983.41;;;13.74;100.00
43770;BME280;6597;52.218;9.882;2023-06-10T05:19:12;100975.41;;;13.75;100.00
43770;BME280;6597;52.218;9.882;2023-06-10T05:21:38;100984.91;;;13.79;100.00
43770;BME280;6597;52.218;9.882;2023-06-10T05:24:06;100986.75;;;13.77;100.00
43770;BME280;6597;52.218;9.882;2023-06-10T05:26:33;100987.31;;;13.84;100.00
43770;BME280;6597;52.218;9.882;2023-06-10T05:29:02;100983.56;;;13.89;100.00
43770;BME280;6597;52.218;9.882;2023-06-10T05:31:29;100986.06;;;13.92;100.00
43770;BME280;6597;52.218;9.882;2023-06-10T05:33:57;100986.84;;;13.94;100.00
43770;BME280;6597;52.218;9.882;2023-06-10T05:36:24;100998.31;;;13.93;100.00
43770;BME280;6597;52.218;9.882;2023-06-10T05:38:52;100984.34;;;13.91;100.00
43770;BME280;6597;52.218;9.882;2023-06-10T05:41:18;100987.75;;;13.93;100.00
43770;BME280;6597;52.218;9.882;2023-06-10T05:43:45;100997.06;;;14.02;100.00
43770;BME280;6597;52.218;9.882;2023-06-10T05:46:12;100996.06;;;14.05;100.00
43770;BME280;6597;52.218;9.882;2023-06-10T05:48:38;100990.66;;;14.08;100.00
43770;BME280;6597;52.218;9.882;2023-06-10T05:51:06;100984.16;;;14.15;100.00
43770;BME280;6597;52.218;9.882;2023-06-10T05:53:32;100985.88;;;14.16;100.00
43770;BME280;6597;52.218;9.882;2023-06-10T05:55:59;100996.56;;;14.13;100.00
43770;BME280;6597;52.218;9.882;2023-06-10T05:58:26;100994.56;;;14.18;100.00
43770;BME280;6597;52.218;9.882;2023-06-10T06:00:52;100991.50;;;14.27;100.00
43770;BME280;6597;52.218;9.882;2023-06-10T06:03:19;100992.09;;;14.33;100.00
43770;BME280;6597;52.218;9.882;2023-06-10T06:05:45;100993.66;;;14.38;100.00
43770;BME280;6597;52.218;9.882;2023-06-10T06:08:13;100997.22;;;14.37;100.00
43770;BME280;6597;52.218;9.882;2023-06-10T06:10:43;101000.47;;;14.43;100.00
43770;BME280;6597;52.218;9.882;2023-06-10T06:13:09;100999.47;;;14.46;100.00
43770;BME280;6597;52.218;9.882;2023-06-10T06:15:36;100997.81;;;14.43;100.00
43770;BME280;6597;52.218;9.882;2023-06-10T06:18:03;100990.69;;;14.45;100.00
43770;BME280;6597;52.218;9.882;2023-06-10T06:20:29;100994.88;;;14.49;100.00
43770;BME280;6597;52.218;9.882;2023-06-10T06:22:56;100993.09;;;14.50;100.00
43770;BME280;6597;52.218;9.882;2023-06-10T06:25:23;101001.44;;;14.59;100.00
43770;BME280;6597;52.218;9.882;2023-06-10T06:27:50;100996.66;;;14.68;100.00
43770;BME280;6597;52.218;9.882;2023-06-10T06:30:16;100996.06;;;14.80;100.00
43770;BME280;6597;52.218;9.882;2023-06-10T06:32:43;100996.69;;;14.85;100.00
43770;BME280;6597;52.218;9.882;2023-06-10T06:35:10;101006.16;;;14.89;100.00
43770;BME280;6597;52.218;9.882;2023-06-10T06:37:36;101005.25;;;14.90;100.00
43770;BME280;6597;52.218;9.882;2023-06-10T06:40:16;100997.16;;;14.93;99.95
43770;BME280;6597;52.218;9.882;2023-06-10T06:42:44;101003.44;;;14.90;99.13
43770;BME280;6597;52.218;9.882;2023-06-10T06:45:22;101002.31;;;14.96;98.83
43770;BME280;6597;52.218;9.882;2023-06-10T06:47:49;101006.38;;;15.03;98.37
43770;BME280;6597;52.218;9.882;2023-06-10T06:50:16;101007.00;;;15.08;98.11
43770;BME280;6597;52.218;9.882;2023-06-10T06:52:43;101002.72;;;15.23;98.08
43770;BME280;6597;52.218;9.882;2023-06-10T06:55:10;101012.44;;;15.40;98.24
43770;BME280;6597;52.218;9.882;2023-06-10T06:57:36;101008.38;;;15.50;96.37
43770;BME280;6597;52.218;9.882;2023-06-10T07:00:06;100995.94;;;15.52;96.27
43770;BME280;6597;52.218;9.882;2023-06-10T07:02:34;101015.22;;;15.54;96.01
43770;BME280;6597;52.218;9.882;2023-06-10T07:05:00;101004.16;;;15.65;95.32
43770;BME280;6597;52.218;9.882;2023-06-10T07:07:27;101009.72;;;15.76;94.49
43770;BME280;6597;52.218;9.882;2023-06-10T07:09:53;101011.41;;;15.94;93.64
43770;BME280;6597;52.218;9.882;2023-06-10T07:12:20;101012.97;;;15.98;91.92
43770;BME280;6597;52.218;9.882;2023-06-10T07:14:49;101006.13;;;16.10;91.76
43770;BME280;6597;52.218;9.882;2023-06-10T07:17:17;101003.91;;;16.18;91.84
43770;BME280;6597;52.218;9.882;2023-06-10T07:19:44;101010.38;;;16.30;90.71
43770;BME280;6597;52.218;9.882;2023-06-10T07:22:10;101011.13;;;16.47;89.70
43770;BME280;6597;52.218;9.882;2023-06-10T07:24:37;101008.25;;;16.68;89.60
43770;BME280;6597;52.218;9.882;2023-06-10T07:27:04;101017.72;;;17.03;88.26
43770;BME280;6597;52.218;9.882;2023-06-10T07:29:31;101016.09;;;17.31;86.64
43770;BME280;6597;52.218;9.882;2023-06-10T07:31:57;101015.66;;;17.53;84.77
43770;BME280;6597;52.218;9.882;2023-06-10T07:34:25;101013.19;;;17.80;83.91
43770;BME280;6597;52.218;9.882;2023-06-10T07:36:51;101008.19;;;18.03;83.21
43770;BME280;6597;52.218;9.882;2023-06-10T07:39:18;101009.31;;;17.99;81.33
43770;BME280;6597;52.218;9.882;2023-06-10T07:41:45;101007.09;;;18.20;81.80
43770;BME280;6597;52.218;9.882;2023-06-10T07:44:11;101012.91;;;18.27;80.21
43770;BME280;6597;52.218;9.882;2023-06-10T07:46:38;101011.38;;;18.37;80.27
43770;BME280;6597;52.218;9.882;2023-06-10T07:49:04;101012.50;;;18.47;79.53
43770;BME280;6597;52.218;9.882;2023-06-10T07:51:32;101012.06;;;18.26;79.08
43770;BME280;6597;52.218;9.882;2023-06-10T07:53:59;101012.31;;;18.36;79.63
43770;BME280;6597;52.218;9.882;2023-06-10T07:56:25;101009.91;;;18.60;79.37
43770;BME280;6597;52.218;9.882;2023-06-10T07:58:52;101008.75;;;18.78;78.08
43770;BME280;6597;52.218;9.882;2023-06-10T08:01:18;101016.91;;;18.75;77.45
43770;BME280;6597;52.218;9.882;2023-06-10T08:03:45;101017.00;;;18.88;77.18
43770;BME280;6597;52.218;9.882;2023-06-10T08:06:11;101006.22;;;19.16;76.85
43770;BME280;6597;52.218;9.882;2023-06-10T08:08:40;101009.66;;;19.44;76.70
43770;BME280;6597;52.218;9.882;2023-06-10T08:11:10;101005.59;;;19.65;75.44
43770;BME280;6597;52.218;9.882;2023-06-10T08:13:37;100995.78;;;19.78;73.95
43770;BME280;6597;52.218;9.882;2023-06-10T08:16:04;100995.47;;;19.96;73.62
43770;BME280;6597;52.218;9.882;2023-06-10T08:18:30;100995.66;;;20.05;72.41
43770;BME280;6597;52.218;9.882;2023-06-10T08:20:57;101000.25;;;20.03;71.72
43770;BME280;6597;52.218;9.882;2023-06-10T08:23:23;100997.06;;;19.98;71.31
43770;BME280;6597;52.218;9.882;2023-06-10T08:25:51;100990.22;;;20.07;71.78
43770;BME280;6597;52.218;9.882;2023-06-10T08:28:18;100989.78;;;20.26;70.91
43770;BME280;6597;52.218;9.882;2023-06-10T08:30:44;100988.28;;;20.22;69.40
43770;BME280;6597;52.218;9.882;2023-06-10T08:33:11;100986.38;;;20.24;70.24
43770;BME280;6597;52.218;9.882;2023-06-10T08:35:38;101003.91;;;20.39;70.50
43770;BME280;6597;52.218;9.882;2023-06-10T08:38:04;100993.81;;;20.68;70.72
43770;BME280;6597;52.218;9.882;2023-06-10T08:40:32;100999.63;;;20.86;67.89
43770;BME280;6597;52.218;9.882;2023-06-10T08:43:05;100997.47;;;20.91;68.31
43770;BME280;6597;52.218;9.882;2023-06-10T08:45:34;100990.34;;;21.02;68.54
43770;BME280;6597;52.218;9.882;2023-06-10T08:48:02;100990.69;;;21.22;68.11
43770;BME280;6597;52.218;9.882;2023-06-10T08:50:33;100992.78;;;21.29;68.47
43770;BME280;6597;52.218;9.882;2023-06-10T08:53:00;100994.50;;;21.30;66.66
43770;BME280;6597;52.218;9.882;2023-06-10T08:55:31;100982.38;;;21.37;67.81
43770;BME280;6597;52.218;9.882;2023-06-10T08:58:00;100980.97;;;21.67;66.92
43770;BME280;6597;52.218;9.882;2023-06-10T09:00:28;100990.38;;;21.84;64.79
43770;BME280;6597;52.218;9.882;2023-06-10T09:02:55;100988.78;;;21.92;65.96
43770;BME280;6597;52.218;9.882;2023-06-10T09:05:22;100991.00;;;22.10;65.94
43770;BME280;6597;52.218;9.882;2023-06-10T09:07:51;100992.56;;;22.34;65.48
43770;BME280;6597;52.218;9.882;2023-06-10T09:10:18;100991.00;;;22.75;65.18
43770;BME280;6597;52.218;9.882;2023-06-10T09:12:44;100984.34;;;22.81;61.81
43770;BME280;6597;52.218;9.882;2023-06-10T09:15:12;100982.53;;;22.81;61.60
43770;BME280;6597;52.218;9.882;2023-06-10T09:17:40;100977.75;;;22.85;63.17
43770;BME280;6597;52.218;9.882;2023-06-10T09:20:07;100988.22;;;22.88;63.11
43770;BME280;6597;52.218;9.882;2023-06-10T09:22:34;100985.78;;;22.85;62.17
43770;BME280;6597;52.218;9.882;2023-06-10T09:25:05;100988.59;;;22.72;61.62
43770;BME280;6597;52.218;9.882;2023-06-10T09:27:32;100981.16;;;22.87;63.25
43770;BME280;6597;52.218;9.882;2023-06-10T09:29:59;100974.25;;;23.05;63.06
43770;BME280;6597;52.218;9.882;2023-06-10T09:32:26;100982.78;;;23.10;63.37
43770;BME280;6597;52.218;9.882;2023-06-10T09:34:54;100978.22;;;23.22;62.56
43770;BME280;6597;52.218;9.882;2023-06-10T09:37:21;100975.59;;;23.32;62.62
43770;BME280;6597;52.218;9.882;2023-06-10T09:40:02;100979.38;;;23.29;62.30
43770;BME280;6597;52.218;9.882;2023-06-10T09:42:32;100970.38;;;23.30;63.81
43770;BME280;6597;52.218;9.882;2023-06-10T09:45:00;100986.31;;;23.32;62.67
43770;BME280;6597;52.218;9.882;2023-06-10T09:47:28;100975.38;;;23.55;62.63
43770;BME280;6597;52.218;9.882;2023-06-10T09:49:54;100970.28;;;23.83;60.95
43770;BME280;6597;52.218;9.882;2023-06-10T09:52:21;100971.31;;;23.92;60.47
43770;BME280;6597;52.218;9.882;2023-06-10T09:54:49;100968.53;;;24.03;61.99
43770;BME280;6597;52.218;9.882;2023-06-10T09:57:16;100975.22;;;24.08;61.71
43770;BME280;6597;52.218;9.882;2023-06-10T09:59:43;100973.44;;;23.98;61.66
43770;BME280;6597;52.218;9.882;2023-06-10T10:05:59;100962.53;;;24.20;62.92
43770;BME280;6597;52.218;9.882;2023-06-10T10:08:51;100959.16;;;24.18;60.35
43770;BME280;6597;52.218;9.882;2023-06-10T10:11:20;100962.88;;;24.36;61.99
43770;BME280;6597;52.218;9.882;2023-06-10T10:13:48;100961.13;;;24.75;62.06
43770;BME280;6597;52.218;9.882;2023-06-10T10:16:16;100956.59;;;24.95;59.02
43770;BME280;6597;52.218;9.882;2023-06-10T10:18:49;100973.28;;;24.79;58.85
43770;BME280;6597;52.218;9.882;2023-06-10T10:21:22;100968.16;;;24.57;59.63
43770;BME280;6597;52.218;9.882;2023-06-10T10:23:53;100959.25;;;24.47;62.01
43770;BME280;6597;52.218;9.882;2023-06-10T10:26:21;100966.88;;;24.61;61.53
43770;BME280;6597;52.218;9.882;2023-06-10T10:28:53;100957.47;;;24.76;60.21
43770;BME280;6597;52.218;9.882;2023-06-10T10:31:27;100970.88;;;24.86;59.19
43770;BME280;6597;52.218;9.882;2023-06-10T10:33:59;100958.31;;;24.87;59.38
43770;BME280;6597;52.218;9.882;2023-06-10T10:36:27;100959.16;;;24.77;59.78
43770;BME280;6597;52.218;9.882;2023-06-10T10:38:54;100953.78;;;24.87;60.85
43770;BME280;6597;52.218;9.882;2023-06-10T10:41:21;100950.84;;;25.09;62.40
43770;BME280;6597;52.218;9.882;2023-06-10T10:43:49;100951.91;;;25.36;58.94
43770;BME280;6597;52.218;9.882;2023-06-10T10:46:17;100953.06;;;25.33;58.02
43770;BME280;6597;52.218;9.882;2023-06-10T10:48:44;100952.50;;;25.30;58.44
43770;BME280;6597;52.218;9.882;2023-06-10T10:51:11;100944.00;;;25.34;58.06
43770;BME280;6597;52.218;9.882;2023-06-10T10:53:40;100953.75;;;25.35;59.17
43770;BME280;6597;52.218;9.882;2023-06-10T10:56:13;100933.69;;;25.30;58.35
43770;BME280;6597;52.218;9.882;2023-06-10T10:58:40;100936.34;;;25.49;59.67
43770;BME280;6597;52.218;9.882;2023-06-10T11:01:13;100945.91;;;25.81;56.86
43770;BME280;6597;52.218;9.882;2023-06-10T11:03:44;100944.31;;;25.88;56.88
43770;BME280;6597;52.218;9.882;2023-06-10T11:06:13;100942.41;;;25.98;56.82
43770;BME280;6597;52.218;9.882;2023-06-10T11:08:49;100945.72;;;26.19;55.82
43770;BME280;6597;52.218;9.882;2023-06-10T11:11:20;100941.56;;;26.34;55.15
43770;BME280;6597;52.218;9.882;2023-06-10T11:14:07;100937.41;;;26.40;54.05
43770;BME280;6597;52.218;9.882;2023-06-10T11:16:39;100947.03;;;26.60;54.49
43770;BME280;6597;52.218;9.882;2023-06-10T11:19:06;100933.03;;;26.57;53.27
43770;BME280;6597;52.218;9.882;2023-06-10T11:21:43;100934.50;;;26.51;53.66
43770;BME280;6597;52.218;9.882;2023-06-10T11:24:13;100926.88;;;26.64;54.65
43770;BME280;6597;52.218;9.882;2023-06-10T11:26:43;100919.03;;;26.89;53.01
43770;BME280;6597;52.218;9.882;2023-06-10T11:29:10;100912.97;;;27.05;50.58
43770;BME280;6597;52.218;9.882;2023-06-10T11:31:44;100914.41;;;26.99;50.63
43770;BME280;6597;52.218;9.882;2023-06-10T11:34:12;100915.28;;;27.00;51.38
43770;BME280;6597;52.218;9.882;2023-06-10T11:36:41;100917.09;;;27.17;51.10
43770;BME280;6597;52.218;9.882;2023-06-10T11:39:10;100903.66;;;27.25;51.03
43770;BME280;6597;52.218;9.882;2023-06-10T11:41:39;100906.81;;;27.38;51.09
43770;BME280;6597;52.218;9.882;2023-06-10T11:44:10;100902.66;;;27.52;49.30
43770;BME280;6597;52.218;9.882;2023-06-10T11:46:37;100894.75;;;27.50;49.17
43770;BME280;6597;52.218;9.882;2023-06-10T11:49:04;100896.38;;;27.43;49.14
43770;BME280;6597;52.218;9.882;2023-06-10T11:51:33;100902.47;;;27.45;51.74
43770;BME280;6597;52.218;9.882;2023-06-10T11:54:01;100892.84;;;27.69;49.25
43770;BME280;6597;52.218;9.882;2023-06-10T11:56:29;100895.03;;;28.07;48.14
43770;BME280;6597;52.218;9.882;2023-06-10T11:58:58;100895.78;;;28.26;47.55
43770;BME280;6597;52.218;9.882;2023-06-10T12:01:30;100899.53;;;28.33;47.23
43770;BME280;6597;52.218;9.882;2023-06-10T12:03:58;100898.53;;;28.42;47.19
43770;BME280;6597;52.218;9.882;2023-06-10T12:06:25;100894.81;;;28.51;47.30
43770;BME280;6597;52.218;9.882;2023-06-10T12:08:51;100889.75;;;28.40;46.40
43770;BME280;6597;52.218;9.882;2023-06-10T12:11:18;100893.78;;;28.36;47.30
43770;BME280;6597;52.218;9.882;2023-06-10T12:13:48;100898.19;;;28.53;48.75
43770;BME280;6597;52.218;9.882;2023-06-10T12:16:16;100900.25;;;28.75;47.51
43770;BME280;6597;52.218;9.882;2023-06-10T12:18:46;100897.72;;;28.82;45.78
43770;BME280;6597;52.218;9.882;2023-06-10T12:21:18;100889.81;;;28.97;45.64
43770;BME280;6597;52.218;9.882;2023-06-10T12:24:07;100880.34;;;29.09;45.29
43770;BME280;6597;52.218;9.882;2023-06-10T12:26:41;100869.84;;;29.22;46.13
43770;BME280;6597;52.218;9.882;2023-06-10T12:29:17;100878.94;;;29.37;45.18
43770;BME280;6597;52.218;9.882;2023-06-10T12:31:54;100885.53;;;29.27;44.36
43770;BME280;6597;52.218;9.882;2023-06-10T12:34:28;100878.97;;;29.29;43.99
43770;BME280;6597;52.218;9.882;2023-06-10T12:36:55;100875.75;;;29.26;44.38
43770;BME280;6597;52.218;9.882;2023-06-10T12:39:22;100877.09;;;29.22;44.34
43770;BME280;6597;52.218;9.882;2023-06-10T12:41:48;100876.44;;;29.20;45.90
43770;BME280;6597;52.218;9.882;2023-06-10T12:44:15;100874.59;;;29.12;44.91
43770;BME280;6597;52.218;9.882;2023-06-10T12:46:41;100867.84;;;29.00;45.27
43770;BME280;6597;52.218;9.882;2023-06-10T12:49:18;100868.22;;;28.97;45.80
43770;BME280;6597;52.218;9.882;2023-06-10T12:51:45;100864.47;;;29.06;44.23
43770;BME280;6597;52.218;9.882;2023-06-10T12:54:11;100854.81;;;29.11;43.64
43770;BME280;6597;52.218;9.882;2023-06-10T13:08:35;100858.50;;;29.35;44.34
43770;BME280;6597;52.218;9.882;2023-06-10T13:11:01;100854.41;;;29.55;42.87
43770;BME280;6597;52.218;9.882;2023-06-10T13:13:28;100852.44;;;29.80;41.42
43770;BME280;6597;52.218;9.882;2023-06-10T13:15:55;100857.94;;;30.03;41.93
43770;BME280;6597;52.218;9.882;2023-06-10T13:18:22;100857.59;;;30.06;42.19